sensor_id;sensor_type;location;lat;lon;timestamp;P1;durP1;ratioP1;P2;durP2;ratioP2
22679;SDS011;11507;44.858;10.374;2023-12-14T00:04:41;39.17;;;20.63;;
22679;SDS011;11507;44.858;10.374;2023-12-14T00:07:07;35.63;;;19.15;;
22679;SDS011;11507;44.858;10.374;2023-12-14T00:09:33;39.33;;;20.35;;
22679;SDS011;11507;44.858;10.374;2023-12-14T00:14:25;27.63;;;14.13;;
22679;SDS011;11507;44.858;10.374;2023-12-14T00:16:51;38.45;;;21.33;;
22679;SDS011;11507;44.858;10.374;2023-12-14T00:19:18;43.03;;;21.17;;
22679;SDS011;11507;44.858;10.374;2023-12-14T00:24:10;38.55;;;20.42;;
22679;SDS011;11507;44.858;10.374;2023-12-14T00:29:02;41.15;;;21.35;;
22679;SDS011;11507;44.858;10.374;2023-12-14T00:33:54;43.53;;;22.10;;
22679;SDS011;11507;44.858;10.374;2023-12-14T00:38:46;43.80;;;21.45;;
22679;SDS011;11507;44.858;10.374;2023-12-14T00:43:38;31.50;;;15.52;;
22679;SDS011;11507;44.858;10.374;2023-12-14T00:48:30;44.40;;;21.90;;
22679;SDS011;11507;44.858;10.374;2023-12-14T00:50:56;44.83;;;23.27;;
22679;SDS011;11507;44.858;10.374;2023-12-14T00:53:22;47.97;;;25.10;;
22679;SDS011;11507;44.858;10.374;2023-12-14T00:58:14;43.53;;;22.30;;
22679;SDS011;11507;44.858;10.374;2023-12-14T01:00:40;49.38;;;25.42;;
22679;SDS011;11507;44.858;10.374;2023-12-14T01:03:07;43.78;;;23.73;;
22679;SDS011;11507;44.858;10.374;2023-12-14T01:05:33;48.95;;;26.42;;
22679;SDS011;11507;44.858;10.374;2023-12-14T01:07:59;47.30;;;24.58;;
22679;SDS011;11507;44.858;10.374;2023-12-14T01:10:25;56.30;;;25.90;;
22679;SDS011;11507;44.858;10.374;2023-12-14T01:15:17;54.33;;;26.25;;
22679;SDS011;11507;44.858;10.374;2023-12-14T01:20:09;49.38;;;24.48;;
22679;SDS011;11507;44.858;10.374;2023-12-14T01:22:36;55.45;;;27.40;;
22679;SDS011;11507;44.858;10.374;2023-12-14T01:25:02;54.55;;;27.15;;
22679;SDS011;11507;44.858;10.374;2023-12-14T01:27:28;59.00;;;29.20;;
22679;SDS011;11507;44.858;10.374;2023-12-14T01:29:54;58.17;;;29.05;;
22679;SDS011;11507;44.858;10.374;2023-12-14T01:32:21;61.70;;;29.20;;
22679;SDS011;11507;44.858;10.374;2023-12-14T01:34:47;61.80;;;28.58;;
22679;SDS011;11507;44.858;10.374;2023-12-14T01:37:13;61.90;;;29.58;;
22679;SDS011;11507;44.858;10.374;2023-12-14T01:42:05;56.42;;;26.27;;
22679;SDS011;11507;44.858;10.374;2023-12-14T01:44:31;60.67;;;27.50;;
22679;SDS011;11507;44.858;10.374;2023-12-14T01:46:57;54.97;;;27.83;;
22679;SDS011;11507;44.858;10.374;2023-12-14T01:51:49;58.55;;;27.15;;
22679;SDS011;11507;44.858;10.374;2023-12-14T01:56:41;54.28;;;26.85;;
22679;SDS011;11507;44.858;10.374;2023-12-14T01:59:07;50.30;;;25.23;;
22679;SDS011;11507;44.858;10.374;2023-12-14T02:04:11;54.27;;;26.53;;
22679;SDS011;11507;44.858;10.374;2023-12-14T02:06:38;55.13;;;28.23;;
22679;SDS011;11507;44.858;10.374;2023-12-14T02:09:04;54.97;;;27.65;;
22679;SDS011;11507;44.858;10.374;2023-12-14T02:11:30;48.95;;;26.05;;
22679;SDS011;11507;44.858;10.374;2023-12-14T02:13:57;51.88;;;26.17;;
22679;SDS011;11507;44.858;10.374;2023-12-14T02:16:23;44.85;;;23.33;;
22679;SDS011;11507;44.858;10.374;2023-12-14T02:18:49;44.08;;;23.23;;
22679;SDS011;11507;44.858;10.374;2023-12-14T02:21:15;43.00;;;22.63;;
22679;SDS011;11507;44.858;10.374;2023-12-14T02:23:44;48.42;;;24.13;;
22679;SDS011;11507;44.858;10.374;2023-12-14T02:26:11;47.42;;;23.83;;
22679;SDS011;11507;44.858;10.374;2023-12-14T02:28:38;50.60;;;24.67;;
22679;SDS011;11507;44.858;10.374;2023-12-14T02:31:04;42.78;;;22.50;;
22679;SDS011;11507;44.858;10.374;2023-12-14T02:33:30;46.97;;;23.58;;
22679;SDS011;11507;44.858;10.374;2023-12-14T02:35:57;48.00;;;24.08;;
22679;SDS011;11507;44.858;10.374;2023-12-14T02:38:23;43.40;;;22.42;;
22679;SDS011;11507;44.858;10.374;2023-12-14T02:40:49;41.05;;;21.05;;
22679;SDS011;11507;44.858;10.374;2023-12-14T02:43:16;42.15;;;21.10;;
22679;SDS011;11507;44.858;10.374;2023-12-14T02:45:42;45.03;;;23.08;;
22679;SDS011;11507;44.858;10.374;2023-12-14T02:48:08;45.40;;;23.13;;
22679;SDS011;11507;44.858;10.374;2023-12-14T02:50:34;51.35;;;25.13;;
22679;SDS011;11507;44.858;10.374;2023-12-14T02:55:26;51.53;;;25.00;;
22679;SDS011;11507;44.858;10.374;2023-12-14T02:57:53;47.83;;;24.33;;
22679;SDS011;11507;44.858;10.374;2023-12-14T03:00:19;47.85;;;24.95;;
22679;SDS011;11507;44.858;10.374;2023-12-14T03:02:45;43.58;;;22.67;;
22679;SDS011;11507;44.858;10.374;2023-12-14T03:05:11;49.35;;;23.52;;
22679;SDS011;11507;44.858;10.374;2023-12-14T03:07:37;46.33;;;24.58;;
22679;SDS011;11507;44.858;10.374;2023-12-14T03:10:04;51.28;;;25.33;;
22679;SDS011;11507;44.858;10.374;2023-12-14T03:12:31;48.65;;;23.60;;
22679;SDS011;11507;44.858;10.374;2023-12-14T03:14:57;53.67;;;25.73;;
22679;SDS011;11507;44.858;10.374;2023-12-14T03:19:49;53.67;;;26.58;;
22679;SDS011;11507;44.858;10.374;2023-12-14T03:22:15;55.55;;;28.85;;
22679;SDS011;11507;44.858;10.374;2023-12-14T03:24:41;55.50;;;28.25;;
22679;SDS011;11507;44.858;10.374;2023-12-14T03:27:07;53.30;;;27.75;;
22679;SDS011;11507;44.858;10.374;2023-12-14T03:29:34;51.55;;;26.38;;
22679;SDS011;11507;44.858;10.374;2023-12-14T03:32:01;62.13;;;29.60;;
22679;SDS011;11507;44.858;10.374;2023-12-14T03:34:27;58.65;;;29.77;;
22679;SDS011;11507;44.858;10.374;2023-12-14T03:36:53;63.95;;;30.35;;
22679;SDS011;11507;44.858;10.374;2023-12-14T03:39:19;59.45;;;30.40;;
22679;SDS011;11507;44.858;10.374;2023-12-14T03:41:45;65.18;;;33.22;;
22679;SDS011;11507;44.858;10.374;2023-12-14T03:44:11;64.95;;;32.00;;
22679;SDS011;11507;44.858;10.374;2023-12-14T03:46:38;63.33;;;33.28;;
22679;SDS011;11507;44.858;10.374;2023-12-14T03:51:30;65.63;;;33.53;;
22679;SDS011;11507;44.858;10.374;2023-12-14T03:53:56;68.07;;;35.03;;
22679;SDS011;11507;44.858;10.374;2023-12-14T03:56:22;72.65;;;36.05;;
22679;SDS011;11507;44.858;10.374;2023-12-14T03:58:49;65.97;;;34.72;;
22679;SDS011;11507;44.858;10.374;2023-12-14T04:01:18;74.97;;;34.40;;
22679;SDS011;11507;44.858;10.374;2023-12-14T04:03:46;69.70;;;33.53;;
22679;SDS011;11507;44.858;10.374;2023-12-14T04:06:13;66.63;;;34.28;;
22679;SDS011;11507;44.858;10.374;2023-12-14T04:08:40;68.53;;;33.88;;
22679;SDS011;11507;44.858;10.374;2023-12-14T04:11:07;65.05;;;33.13;;
22679;SDS011;11507;44.858;10.374;2023-12-14T04:13:33;66.40;;;33.92;;
22679;SDS011;11507;44.858;10.374;2023-12-14T04:16:00;63.03;;;32.67;;
22679;SDS011;11507;44.858;10.374;2023-12-14T04:18:26;66.00;;;33.13;;
22679;SDS011;11507;44.858;10.374;2023-12-14T04:20:52;62.83;;;32.10;;
22679;SDS011;11507;44.858;10.374;2023-12-14T04:23:18;65.93;;;32.50;;
22679;SDS011;11507;44.858;10.374;2023-12-14T04:28:10;64.20;;;33.28;;
22679;SDS011;11507;44.858;10.374;2023-12-14T04:33:02;71.95;;;34.40;;
22679;SDS011;11507;44.858;10.374;2023-12-14T04:35:28;67.95;;;33.25;;
22679;SDS011;11507;44.858;10.374;2023-12-14T04:37:56;71.82;;;35.03;;
22679;SDS011;11507;44.858;10.374;2023-12-14T04:40:22;69.82;;;36.03;;
22679;SDS011;11507;44.858;10.374;2023-12-14T04:42:48;71.07;;;35.08;;
22679;SDS011;11507;44.858;10.374;2023-12-14T04:45:15;71.65;;;36.00;;
22679;SDS011;11507;44.858;10.374;2023-12-14T04:47:42;72.85;;;36.78;;
22679;SDS011;11507;44.858;10.374;2023-12-14T04:50:08;74.82;;;38.00;;
22679;SDS011;11507;44.858;10.374;2023-12-14T04:52:34;72.20;;;37.10;;
22679;SDS011;11507;44.858;10.374;2023-12-14T04:57:26;75.30;;;36.88;;
22679;SDS011;11507;44.858;10.374;2023-12-14T04:59:52;71.00;;;36.50;;
22679;SDS011;11507;44.858;10.374;2023-12-14T05:04:45;80.00;;;37.73;;
22679;SDS011;11507;44.858;10.374;2023-12-14T05:09:36;72.75;;;37.92;;
22679;SDS011;11507;44.858;10.374;2023-12-14T05:12:03;84.63;;;38.78;;
22679;SDS011;11507;44.858;10.374;2023-12-14T05:14:29;84.88;;;40.10;;
22679;SDS011;11507;44.858;10.374;2023-12-14T05:16:55;85.15;;;40.97;;
22679;SDS011;11507;44.858;10.374;2023-12-14T05:19:22;83.80;;;40.67;;
22679;SDS011;11507;44.858;10.374;2023-12-14T05:21:48;90.45;;;42.22;;
22679;SDS011;11507;44.858;10.374;2023-12-14T05:24:14;84.03;;;42.22;;
22679;SDS011;11507;44.858;10.374;2023-12-14T05:26:40;85.35;;;42.05;;
22679;SDS011;11507;44.858;10.374;2023-12-14T05:29:06;83.05;;;40.03;;
22679;SDS011;11507;44.858;10.374;2023-12-14T05:33:59;79.47;;;39.88;;
22679;SDS011;11507;44.858;10.374;2023-12-14T05:36:25;87.93;;;40.33;;
22679;SDS011;11507;44.858;10.374;2023-12-14T05:38:51;87.43;;;42.60;;
22679;SDS011;11507;44.858;10.374;2023-12-14T05:43:44;82.43;;;39.90;;
22679;SDS011;11507;44.858;10.374;2023-12-14T05:48:46;86.50;;;40.95;;
22679;SDS011;11507;44.858;10.374;2023-12-14T05:51:13;87.68;;;41.13;;
22679;SDS011;11507;44.858;10.374;2023-12-14T05:53:52;85.47;;;41.95;;
22679;SDS011;11507;44.858;10.374;2023-12-14T05:56:18;90.25;;;42.85;;
22679;SDS011;11507;44.858;10.374;2023-12-14T05:58:44;87.95;;;43.40;;
22679;SDS011;11507;44.858;10.374;2023-12-14T06:03:37;89.90;;;42.72;;
22679;SDS011;11507;44.858;10.374;2023-12-14T06:06:03;84.97;;;41.35;;
22679;SDS011;11507;44.858;10.374;2023-12-14T06:08:30;88.43;;;43.47;;
22679;SDS011;11507;44.858;10.374;2023-12-14T06:10:56;94.70;;;43.85;;
22679;SDS011;11507;44.858;10.374;2023-12-14T06:13:22;91.85;;;44.30;;
22679;SDS011;11507;44.858;10.374;2023-12-14T06:18:14;83.28;;;41.47;;
22679;SDS011;11507;44.858;10.374;2023-12-14T06:20:40;86.70;;;42.17;;
22679;SDS011;11507;44.858;10.374;2023-12-14T06:23:07;87.75;;;41.80;;
22679;SDS011;11507;44.858;10.374;2023-12-14T06:27:58;85.65;;;41.42;;
22679;SDS011;11507;44.858;10.374;2023-12-14T06:30:25;89.55;;;41.33;;
22679;SDS011;11507;44.858;10.374;2023-12-14T06:32:51;87.50;;;41.40;;
22679;SDS011;11507;44.858;10.374;2023-12-14T06:35:17;94.30;;;42.58;;
22679;SDS011;11507;44.858;10.374;2023-12-14T06:40:09;90.87;;;41.67;;
22679;SDS011;11507;44.858;10.374;2023-12-14T06:42:36;82.35;;;40.80;;
22679;SDS011;11507;44.858;10.374;2023-12-14T06:45:03;85.70;;;40.88;;
22679;SDS011;11507;44.858;10.374;2023-12-14T06:47:29;87.25;;;41.95;;
22679;SDS011;11507;44.858;10.374;2023-12-14T06:49:55;78.47;;;40.60;;
22679;SDS011;11507;44.858;10.374;2023-12-14T06:52:24;85.10;;;40.00;;
22679;SDS011;11507;44.858;10.374;2023-12-14T06:54:51;84.30;;;41.28;;
22679;SDS011;11507;44.858;10.374;2023-12-14T06:57:17;80.95;;;39.90;;
22679;SDS011;11507;44.858;10.374;2023-12-14T06:59:43;84.05;;;40.97;;
22679;SDS011;11507;44.858;10.374;2023-12-14T07:04:35;80.85;;;38.30;;
22679;SDS011;11507;44.858;10.374;2023-12-14T07:07:01;79.82;;;38.40;;
22679;SDS011;11507;44.858;10.374;2023-12-14T07:09:27;79.60;;;38.83;;
22679;SDS011;11507;44.858;10.374;2023-12-14T07:11:53;78.47;;;39.28;;
22679;SDS011;11507;44.858;10.374;2023-12-14T07:14:20;81.57;;;39.45;;
22679;SDS011;11507;44.858;10.374;2023-12-14T07:19:12;77.68;;;39.03;;
22679;SDS011;11507;44.858;10.374;2023-12-14T07:21:38;76.15;;;37.45;;
22679;SDS011;11507;44.858;10.374;2023-12-14T07:24:04;77.35;;;37.65;;
22679;SDS011;11507;44.858;10.374;2023-12-14T07:26:30;76.95;;;37.92;;
22679;SDS011;11507;44.858;10.374;2023-12-14T07:28:56;80.53;;;38.10;;
22679;SDS011;11507;44.858;10.374;2023-12-14T07:31:23;74.82;;;37.85;;
22679;SDS011;11507;44.858;10.374;2023-12-14T07:33:49;75.85;;;37.55;;
22679;SDS011;11507;44.858;10.374;2023-12-14T07:36:15;76.38;;;36.60;;
22679;SDS011;11507;44.858;10.374;2023-12-14T07:38:41;75.53;;;37.95;;
22679;SDS011;11507;44.858;10.374;2023-12-14T07:41:08;73.85;;;37.33;;
22679;SDS011;11507;44.858;10.374;2023-12-14T07:43:34;76.22;;;36.83;;
22679;SDS011;11507;44.858;10.374;2023-12-14T07:46:00;74.45;;;37.92;;
22679;SDS011;11507;44.858;10.374;2023-12-14T07:48:26;76.68;;;37.83;;
22679;SDS011;11507;44.858;10.374;2023-12-14T07:50:54;77.15;;;36.53;;
22679;SDS011;11507;44.858;10.374;2023-12-14T07:53:20;73.13;;;35.78;;
22679;SDS011;11507;44.858;10.374;2023-12-14T07:55:46;74.07;;;36.53;;
22679;SDS011;11507;44.858;10.374;2023-12-14T07:58:12;70.18;;;35.38;;
22679;SDS011;11507;44.858;10.374;2023-12-14T08:00:39;70.15;;;36.38;;
22679;SDS011;11507;44.858;10.374;2023-12-14T08:03:06;76.28;;;35.92;;
22679;SDS011;11507;44.858;10.374;2023-12-14T08:05:33;71.78;;;35.40;;
22679;SDS011;11507;44.858;10.374;2023-12-14T08:08:03;72.30;;;36.63;;
22679;SDS011;11507;44.858;10.374;2023-12-14T08:10:30;78.35;;;38.25;;
22679;SDS011;11507;44.858;10.374;2023-12-14T08:12:58;76.13;;;37.20;;
22679;SDS011;11507;44.858;10.374;2023-12-14T08:15:24;73.22;;;37.50;;
22679;SDS011;11507;44.858;10.374;2023-12-14T08:17:52;71.10;;;36.13;;
22679;SDS011;11507;44.858;10.374;2023-12-14T08:20:18;69.00;;;35.35;;
22679;SDS011;11507;44.858;10.374;2023-12-14T08:22:45;71.50;;;35.95;;
22679;SDS011;11507;44.858;10.374;2023-12-14T08:25:14;70.40;;;35.90;;
22679;SDS011;11507;44.858;10.374;2023-12-14T08:27:41;71.45;;;36.53;;
22679;SDS011;11507;44.858;10.374;2023-12-14T08:30:10;74.30;;;36.95;;
22679;SDS011;11507;44.858;10.374;2023-12-14T08:32:37;66.10;;;34.10;;
22679;SDS011;11507;44.858;10.374;2023-12-14T08:35:03;70.00;;;35.15;;
22679;SDS011;11507;44.858;10.374;2023-12-14T08:37:30;65.28;;;35.00;;
22679;SDS011;11507;44.858;10.374;2023-12-14T08:39:56;69.63;;;35.17;;
22679;SDS011;11507;44.858;10.374;2023-12-14T08:42:23;70.35;;;35.78;;
22679;SDS011;11507;44.858;10.374;2023-12-14T08:44:49;70.50;;;34.85;;
22679;SDS011;11507;44.858;10.374;2023-12-14T08:47:16;68.82;;;34.85;;
22679;SDS011;11507;44.858;10.374;2023-12-14T08:49:42;65.63;;;34.33;;
22679;SDS011;11507;44.858;10.374;2023-12-14T08:52:08;63.47;;;33.88;;
22679;SDS011;11507;44.858;10.374;2023-12-14T08:54:37;67.05;;;33.90;;
22679;SDS011;11507;44.858;10.374;2023-12-14T08:57:03;64.22;;;33.45;;
22679;SDS011;11507;44.858;10.374;2023-12-14T08:59:30;68.78;;;35.67;;
22679;SDS011;11507;44.858;10.374;2023-12-14T09:01:56;62.83;;;33.38;;
22679;SDS011;11507;44.858;10.374;2023-12-14T09:04:23;65.82;;;33.38;;
22679;SDS011;11507;44.858;10.374;2023-12-14T09:06:49;65.53;;;33.58;;
22679;SDS011;11507;44.858;10.374;2023-12-14T09:09:16;63.95;;;33.53;;
22679;SDS011;11507;44.858;10.374;2023-12-14T09:11:45;62.83;;;33.40;;
22679;SDS011;11507;44.858;10.374;2023-12-14T09:14:14;63.38;;;33.88;;
22679;SDS011;11507;44.858;10.374;2023-12-14T09:16:43;62.72;;;33.92;;
22679;SDS011;11507;44.858;10.374;2023-12-14T09:19:11;63.95;;;32.47;;
22679;SDS011;11507;44.858;10.374;2023-12-14T09:21:40;62.10;;;32.97;;
22679;SDS011;11507;44.858;10.374;2023-12-14T09:24:07;64.57;;;35.83;;
22679;SDS011;11507;44.858;10.374;2023-12-14T09:26:35;66.03;;;36.70;;
22679;SDS011;11507;44.858;10.374;2023-12-14T09:29:04;60.88;;;33.60;;
22679;SDS011;11507;44.858;10.374;2023-12-14T09:31:34;61.05;;;33.97;;
22679;SDS011;11507;44.858;10.374;2023-12-14T09:34:01;62.00;;;33.67;;
22679;SDS011;11507;44.858;10.374;2023-12-14T09:36:29;63.95;;;35.03;;
22679;SDS011;11507;44.858;10.374;2023-12-14T09:38:56;63.45;;;33.90;;
22679;SDS011;11507;44.858;10.374;2023-12-14T09:41:22;60.83;;;34.20;;
22679;SDS011;11507;44.858;10.374;2023-12-14T09:43:50;60.72;;;33.15;;
22679;SDS011;11507;44.858;10.374;2023-12-14T09:46:21;56.22;;;31.83;;
22679;SDS011;11507;44.858;10.374;2023-12-14T09:48:50;58.13;;;32.47;;
22679;SDS011;11507;44.858;10.374;2023-12-14T09:51:16;57.40;;;31.08;;
22679;SDS011;11507;44.858;10.374;2023-12-14T09:53:43;66.60;;;36.03;;
22679;SDS011;11507;44.858;10.374;2023-12-14T09:56:09;63.70;;;34.90;;
22679;SDS011;11507;44.858;10.374;2023-12-14T09:58:35;59.70;;;33.65;;
22679;SDS011;11507;44.858;10.374;2023-12-14T10:01:20;68.55;;;34.35;;
22679;SDS011;11507;44.858;10.374;2023-12-14T10:03:50;60.88;;;33.10;;
22679;SDS011;11507;44.858;10.374;2023-12-14T10:06:40;60.92;;;34.50;;
22679;SDS011;11507;44.858;10.374;2023-12-14T10:09:08;59.97;;;34.92;;
22679;SDS011;11507;44.858;10.374;2023-12-14T10:11:36;61.75;;;34.95;;
22679;SDS011;11507;44.858;10.374;2023-12-14T10:14:05;58.75;;;33.45;;
22679;SDS011;11507;44.858;10.374;2023-12-14T10:16:48;49.95;;;30.60;;
22679;SDS011;11507;44.858;10.374;2023-12-14T10:19:19;48.88;;;30.85;;
22679;SDS011;11507;44.858;10.374;2023-12-14T10:21:48;46.75;;;28.83;;
22679;SDS011;11507;44.858;10.374;2023-12-14T10:24:16;44.53;;;29.00;;
22679;SDS011;11507;44.858;10.374;2023-12-14T10:26:44;46.53;;;30.55;;
22679;SDS011;11507;44.858;10.374;2023-12-14T10:29:10;44.83;;;29.17;;
22679;SDS011;11507;44.858;10.374;2023-12-14T10:31:37;43.22;;;28.73;;
22679;SDS011;11507;44.858;10.374;2023-12-14T10:34:04;43.65;;;28.90;;
22679;SDS011;11507;44.858;10.374;2023-12-14T10:36:31;42.70;;;28.42;;
22679;SDS011;11507;44.858;10.374;2023-12-14T10:38:58;42.22;;;27.20;;
22679;SDS011;11507;44.858;10.374;2023-12-14T10:41:26;42.13;;;27.33;;
22679;SDS011;11507;44.858;10.374;2023-12-14T10:43:56;42.58;;;27.55;;
22679;SDS011;11507;44.858;10.374;2023-12-14T10:46:25;41.47;;;27.70;;
22679;SDS011;11507;44.858;10.374;2023-12-14T10:48:52;40.47;;;26.45;;
22679;SDS011;11507;44.858;10.374;2023-12-14T10:51:20;40.45;;;25.35;;
22679;SDS011;11507;44.858;10.374;2023-12-14T10:53:49;42.55;;;27.27;;
22679;SDS011;11507;44.858;10.374;2023-12-14T10:56:18;40.53;;;26.58;;
22679;SDS011;11507;44.858;10.374;2023-12-14T10:58:56;39.97;;;26.05;;
22679;SDS011;11507;44.858;10.374;2023-12-14T11:01:26;41.30;;;26.92;;
22679;SDS011;11507;44.858;10.374;2023-12-14T11:03:57;37.22;;;25.65;;
22679;SDS011;11507;44.858;10.374;2023-12-14T11:08:58;35.20;;;23.23;;
22679;SDS011;11507;44.858;10.374;2023-12-14T11:11:56;38.33;;;23.48;;
22679;SDS011;11507;44.858;10.374;2023-12-14T11:14:28;37.47;;;24.20;;
22679;SDS011;11507;44.858;10.374;2023-12-14T11:17:16;38.38;;;25.90;;
22679;SDS011;11507;44.858;10.374;2023-12-14T11:19:44;42.03;;;24.65;;
22679;SDS011;11507;44.858;10.374;2023-12-14T11:22:12;37.35;;;24.10;;
22679;SDS011;11507;44.858;10.374;2023-12-14T11:24:53;34.58;;;23.27;;
22679;SDS011;11507;44.858;10.374;2023-12-14T11:27:26;35.72;;;23.75;;
22679;SDS011;11507;44.858;10.374;2023-12-14T11:29:59;34.03;;;22.27;;
22679;SDS011;11507;44.858;10.374;2023-12-14T11:32:29;33.38;;;22.00;;
22679;SDS011;11507;44.858;10.374;2023-12-14T11:34:58;31.52;;;20.33;;
22679;SDS011;11507;44.858;10.374;2023-12-14T11:37:25;30.88;;;21.08;;
22679;SDS011;11507;44.858;10.374;2023-12-14T11:39:54;30.63;;;21.67;;
22679;SDS011;11507;44.858;10.374;2023-12-14T11:42:21;32.63;;;20.75;;
22679;SDS011;11507;44.858;10.374;2023-12-14T11:44:50;31.38;;;21.23;;
22679;SDS011;11507;44.858;10.374;2023-12-14T11:47:17;31.08;;;21.63;;
22679;SDS011;11507;44.858;10.374;2023-12-14T11:49:44;37.53;;;23.55;;
22679;SDS011;11507;44.858;10.374;2023-12-14T11:52:11;42.20;;;27.05;;
22679;SDS011;11507;44.858;10.374;2023-12-14T11:54:39;41.15;;;26.13;;
22679;SDS011;11507;44.858;10.374;2023-12-14T11:57:08;43.75;;;26.80;;
22679;SDS011;11507;44.858;10.374;2023-12-14T11:59:40;44.60;;;28.52;;
22679;SDS011;11507;44.858;10.374;2023-12-14T12:02:06;42.85;;;27.17;;
22679;SDS011;11507;44.858;10.374;2023-12-14T12:04:33;43.95;;;27.83;;
22679;SDS011;11507;44.858;10.374;2023-12-14T12:07:01;48.67;;;30.13;;
22679;SDS011;11507;44.858;10.374;2023-12-14T12:09:37;48.85;;;30.50;;
22679;SDS011;11507;44.858;10.374;2023-12-14T12:12:07;56.38;;;32.92;;
22679;SDS011;11507;44.858;10.374;2023-12-14T12:14:36;50.72;;;30.58;;
22679;SDS011;11507;44.858;10.374;2023-12-14T12:17:05;53.53;;;32.10;;
22679;SDS011;11507;44.858;10.374;2023-12-14T12:19:34;51.95;;;30.95;;
22679;SDS011;11507;44.858;10.374;2023-12-14T12:22:03;48.17;;;30.02;;
22679;SDS011;11507;44.858;10.374;2023-12-14T12:24:30;51.45;;;30.15;;
22679;SDS011;11507;44.858;10.374;2023-12-14T12:26:58;49.85;;;31.13;;
22679;SDS011;11507;44.858;10.374;2023-12-14T12:29:25;49.67;;;30.23;;
22679;SDS011;11507;44.858;10.374;2023-12-14T12:31:51;46.85;;;29.23;;
22679;SDS011;11507;44.858;10.374;2023-12-14T12:34:18;49.40;;;28.75;;
22679;SDS011;11507;44.858;10.374;2023-12-14T12:36:44;48.67;;;27.90;;
22679;SDS011;11507;44.858;10.374;2023-12-14T12:39:10;48.78;;;30.55;;
22679;SDS011;11507;44.858;10.374;2023-12-14T12:41:37;49.25;;;28.70;;
22679;SDS011;11507;44.858;10.374;2023-12-14T12:44:05;47.80;;;28.77;;
22679;SDS011;11507;44.858;10.374;2023-12-14T12:46:33;49.03;;;29.20;;
22679;SDS011;11507;44.858;10.374;2023-12-14T12:49:00;50.13;;;29.55;;
22679;SDS011;11507;44.858;10.374;2023-12-14T12:51:27;54.90;;;31.48;;
22679;SDS011;11507;44.858;10.374;2023-12-14T12:53:54;50.83;;;29.80;;
22679;SDS011;11507;44.858;10.374;2023-12-14T12:56:27;57.25;;;32.05;;
22679;SDS011;11507;44.858;10.374;2023-12-14T12:58:54;54.65;;;31.00;;
22679;SDS011;11507;44.858;10.374;2023-12-14T13:01:21;54.88;;;31.17;;
22679;SDS011;11507;44.858;10.374;2023-12-14T13:03:54;55.47;;;31.58;;
22679;SDS011;11507;44.858;10.374;2023-12-14T13:06:25;53.03;;;30.63;;
22679;SDS011;11507;44.858;10.374;2023-12-14T13:08:52;54.20;;;29.35;;
22679;SDS011;11507;44.858;10.374;2023-12-14T13:11:19;52.92;;;31.52;;
22679;SDS011;11507;44.858;10.374;2023-12-14T13:13:45;51.85;;;31.80;;
22679;SDS011;11507;44.858;10.374;2023-12-14T13:16:12;53.88;;;31.77;;
22679;SDS011;11507;44.858;10.374;2023-12-14T13:18:39;53.65;;;31.45;;
22679;SDS011;11507;44.858;10.374;2023-12-14T13:21:06;55.70;;;32.70;;
22679;SDS011;11507;44.858;10.374;2023-12-14T13:23:32;61.35;;;34.75;;
22679;SDS011;11507;44.858;10.374;2023-12-14T13:25:59;58.10;;;34.65;;
22679;SDS011;11507;44.858;10.374;2023-12-14T13:28:26;63.90;;;35.85;;
22679;SDS011;11507;44.858;10.374;2023-12-14T13:30:53;64.88;;;37.22;;
22679;SDS011;11507;44.858;10.374;2023-12-14T13:33:20;62.55;;;36.40;;
22679;SDS011;11507;44.858;10.374;2023-12-14T13:35:46;60.20;;;34.30;;
22679;SDS011;11507;44.858;10.374;2023-12-14T13:38:12;60.75;;;34.92;;
22679;SDS011;11507;44.858;10.374;2023-12-14T13:40:39;58.58;;;33.53;;
22679;SDS011;11507;44.858;10.374;2023-12-14T13:43:06;59.58;;;35.13;;
22679;SDS011;11507;44.858;10.374;2023-12-14T13:45:37;65.75;;;36.60;;
22679;SDS011;11507;44.858;10.374;2023-12-14T13:48:04;70.50;;;39.40;;
22679;SDS011;11507;44.858;10.374;2023-12-14T13:50:32;63.22;;;37.35;;
22679;SDS011;11507;44.858;10.374;2023-12-14T13:53:00;64.38;;;37.72;;
22679;SDS011;11507;44.858;10.374;2023-12-14T13:55:27;68.03;;;38.55;;
22679;SDS011;11507;44.858;10.374;2023-12-14T13:57:53;70.47;;;41.67;;
22679;SDS011;11507;44.858;10.374;2023-12-14T14:00:23;59.03;;;36.55;;
22679;SDS011;11507;44.858;10.374;2023-12-14T14:02:49;61.95;;;39.08;;
22679;SDS011;11507;44.858;10.374;2023-12-14T14:05:16;67.00;;;41.00;;
22679;SDS011;11507;44.858;10.374;2023-12-14T14:07:42;64.55;;;40.25;;
22679;SDS011;11507;44.858;10.374;2023-12-14T14:10:09;60.72;;;39.20;;
22679;SDS011;11507;44.858;10.374;2023-12-14T14:12:35;62.83;;;36.83;;
22679;SDS011;11507;44.858;10.374;2023-12-14T14:15:01;64.82;;;38.35;;
22679;SDS011;11507;44.858;10.374;2023-12-14T14:17:28;64.32;;;37.60;;
22679;SDS011;11507;44.858;10.374;2023-12-14T14:19:54;67.28;;;38.88;;
22679;SDS011;11507;44.858;10.374;2023-12-14T14:22:20;67.20;;;38.25;;
22679;SDS011;11507;44.858;10.374;2023-12-14T14:24:47;66.38;;;36.42;;
22679;SDS011;11507;44.858;10.374;2023-12-14T14:27:13;67.35;;;37.78;;
22679;SDS011;11507;44.858;10.374;2023-12-14T14:29:40;65.88;;;37.15;;
22679;SDS011;11507;44.858;10.374;2023-12-14T14:32:06;72.30;;;38.80;;
22679;SDS011;11507;44.858;10.374;2023-12-14T14:34:32;74.20;;;40.60;;
22679;SDS011;11507;44.858;10.374;2023-12-14T14:37:01;68.00;;;36.97;;
22679;SDS011;11507;44.858;10.374;2023-12-14T14:39:27;73.20;;;37.58;;
22679;SDS011;11507;44.858;10.374;2023-12-14T14:41:53;70.65;;;37.65;;
22679;SDS011;11507;44.858;10.374;2023-12-14T14:44:19;73.20;;;38.53;;
22679;SDS011;11507;44.858;10.374;2023-12-14T14:46:45;71.90;;;36.70;;
22679;SDS011;11507;44.858;10.374;2023-12-14T14:49:12;69.55;;;36.55;;
22679;SDS011;11507;44.858;10.374;2023-12-14T14:51:38;70.53;;;36.55;;
22679;SDS011;11507;44.858;10.374;2023-12-14T14:54:07;76.00;;;38.33;;
22679;SDS011;11507;44.858;10.374;2023-12-14T14:56:33;73.57;;;38.53;;
22679;SDS011;11507;44.858;10.374;2023-12-14T14:59:01;77.45;;;35.90;;
22679;SDS011;11507;44.858;10.374;2023-12-14T15:01:29;71.25;;;35.40;;
22679;SDS011;11507;44.858;10.374;2023-12-14T15:04:01;69.18;;;35.00;;
22679;SDS011;11507;44.858;10.374;2023-12-14T15:06:33;68.00;;;35.55;;
22679;SDS011;11507;44.858;10.374;2023-12-14T15:08:59;70.82;;;35.33;;
22679;SDS011;11507;44.858;10.374;2023-12-14T15:11:26;70.90;;;35.72;;
22679;SDS011;11507;44.858;10.374;2023-12-14T15:13:53;73.97;;;34.90;;
22679;SDS011;11507;44.858;10.374;2023-12-14T15:16:23;74.93;;;36.88;;
22679;SDS011;11507;44.858;10.374;2023-12-14T15:18:51;70.53;;;34.20;;
22679;SDS011;11507;44.858;10.374;2023-12-14T15:21:18;75.13;;;38.15;;
22679;SDS011;11507;44.858;10.374;2023-12-14T15:23:45;77.45;;;37.63;;
22679;SDS011;11507;44.858;10.374;2023-12-14T15:26:13;75.85;;;38.45;;
22679;SDS011;11507;44.858;10.374;2023-12-14T15:28:41;79.85;;;39.42;;
22679;SDS011;11507;44.858;10.374;2023-12-14T15:31:11;83.82;;;38.97;;